createdAt,value
2018-09-09T00:01:30.075Z,27.25
2018-09-09T00:03:58.355Z,28.50
2018-09-09T00:06:26.597Z,31.50
2018-09-09T00:08:54.933Z,31.25
2018-09-09T00:11:23.316Z,27.50
2018-09-09T00:13:52.732Z,28.50
2018-09-09T00:16:21.041Z,27.50
2018-09-09T00:18:49.342Z,32.25
2018-09-09T00:21:17.646Z,29.75
2018-09-09T00:23:45.946Z,26.75
2018-09-09T00:26:14.220Z,26.50
2018-09-09T00:28:43.110Z,28.25
2018-09-09T00:31:11.405Z,29.75
2018-09-09T00:33:39.700Z,30.75
2018-09-09T00:36:07.984Z,28.75
2018-09-09T00:38:36.283Z,33.25
2018-09-09T00:41:04.576Z,22.25
2018-09-09T00:43:32.879Z,25.75
2018-09-09T00:46:01.206Z,30.25
2018-09-09T00:48:29.495Z,28.75
2018-09-09T00:51:02.903Z,30.25
2018-09-09T00:53:36.341Z,30.75
2018-09-09T00:56:04.677Z,26.50
2018-09-09T00:58:32.966Z,37.25
2018-09-09T01:01:06.455Z,26.50
2018-09-09T01:03:36.525Z,30.25
2018-09-09T01:06:04.819Z,32.75
2018-09-09T01:08:33.082Z,28.00
2018-09-09T01:11:01.409Z,32.00
2018-09-09T01:13:29.711Z,34.00
2018-09-09T01:15:57.949Z,33.00
2018-09-09T01:18:26.292Z,29.00
2018-09-09T01:20:54.598Z,28.00
2018-09-09T01:23:22.894Z,28.25
2018-09-09T01:25:51.201Z,21.25
2018-09-09T01:28:19.461Z,28.25
2018-09-09T01:30:47.756Z,31.00
2018-09-09T01:33:16.080Z,25.25
2018-09-09T01:35:44.469Z,22.50
2018-09-09T01:38:12.760Z,24.25
2018-09-09T01:40:41.074Z,27.75
2018-09-09T01:43:09.351Z,25.50
2018-09-09T01:45:38.658Z,29.00
2018-09-09T01:48:06.933Z,31.25
2018-09-09T01:50:35.233Z,30.75
2018-09-09T01:53:03.663Z,27.00
2018-09-09T01:55:31.998Z,27.25
2018-09-09T01:58:00.341Z,27.00
2018-09-09T02:00:28.672Z,24.75
2018-09-09T02:02:56.958Z,28.50
2018-09-09T02:05:25.325Z,23.75
2018-09-09T02:07:53.651Z,27.75
2018-09-09T02:10:21.960Z,21.25
2018-09-09T02:12:50.248Z,26.25
2018-09-09T02:15:18.513Z,26.00
2018-09-09T02:17:46.758Z,24.75
2018-09-09T02:20:15.110Z,22.25
2018-09-09T02:22:43.439Z,20.50
2018-09-09T02:25:11.718Z,23.50
2018-09-09T02:27:40.038Z,25.00
2018-09-09T02:30:08.307Z,25.00
2018-09-09T02:32:36.626Z,21.50
2018-09-09T02:35:04.891Z,24.75
2018-09-09T02:37:33.200Z,25.25
2018-09-09T02:40:01.469Z,25.25
2018-09-09T02:42:29.786Z,26.50
2018-09-09T02:44:58.176Z,23.50
2018-09-09T02:47:26.474Z,25.50
2018-09-09T02:49:54.849Z,23.00
2018-09-09T02:52:23.162Z,26.00
2018-09-09T02:54:51.456Z,22.50
2018-09-09T02:57:19.736Z,29.75
2018-09-09T02:59:48.008Z,21.75
2018-09-09T03:02:16.282Z,20.50
2018-09-09T03:04:44.597Z,21.25
2018-09-09T03:07:13.816Z,25.00
2018-09-09T03:09:42.111Z,17.75
2018-09-09T03:12:10.407Z,20.25
2018-09-09T03:14:38.697Z,22.50
2018-09-09T03:17:07.007Z,28.00
2018-09-09T03:19:36.225Z,19.25
2018-09-09T03:22:04.492Z,23.50
2018-09-09T03:24:32.778Z,24.50
2018-09-09T03:27:01.070Z,20.00
2018-09-09T03:29:29.375Z,21.75
2018-09-09T03:31:57.668Z,25.50
2018-09-09T03:34:25.995Z,23.00
2018-09-09T03:36:54.294Z,21.75
2018-09-09T03:39:22.586Z,22.00
2018-09-09T03:41:50.877Z,18.25
2018-09-09T03:44:19.167Z,19.25
2018-09-09T03:46:47.455Z,24.75
2018-09-09T03:49:16.032Z,17.25
2018-09-09T03:51:44.339Z,22.50
2018-09-09T03:54:12.638Z,24.00
2018-09-09T03:56:40.950Z,21.75
2018-09-09T03:59:09.240Z,24.75
2018-09-09T04:01:37.520Z,25.50
2018-09-09T04:04:05.815Z,22.75
2018-09-09T04:06:34.103Z,23.25
2018-09-09T04:09:02.385Z,21.00
2018-09-09T04:11:30.685Z,21.75
2018-09-09T04:13:58.958Z,22.00
2018-09-09T04:16:27.268Z,25.00
2018-09-09T04:18:55.559Z,24.00
2018-09-09T04:21:23.876Z,21.25
2018-09-09T04:23:52.143Z,25.50
2018-09-09T04:26:20.454Z,23.50
2018-09-09T04:28:48.740Z,25.00
2018-09-09T04:31:17.042Z,22.50
2018-09-09T04:33:45.356Z,21.75
2018-09-09T04:36:13.636Z,24.75
2018-09-09T04:38:41.933Z,20.00
2018-09-09T04:41:10.187Z,24.25
2018-09-09T04:43:38.468Z,19.75
2018-09-09T04:46:06.831Z,23.25
2018-09-09T04:48:35.359Z,21.25
2018-09-09T04:51:03.647Z,20.25
2018-09-09T04:53:33.271Z,26.75
2018-09-09T04:56:01.591Z,20.50
2018-09-09T04:58:29.899Z,26.25
2018-09-09T05:00:58.197Z,25.50
2018-09-09T05:03:26.515Z,24.75
2018-09-09T05:05:54.819Z,24.50
2018-09-09T05:08:23.126Z,23.75
2018-09-09T05:10:51.428Z,25.25
2018-09-09T05:13:19.715Z,23.00
2018-09-09T05:15:49.039Z,22.75
2018-09-09T05:18:17.310Z,21.00
2018-09-09T05:20:45.596Z,27.25
2018-09-09T05:23:13.887Z,21.00
2018-09-09T05:25:42.193Z,27.50
2018-09-09T05:28:10.498Z,22.00
2018-09-09T05:30:38.792Z,21.00
2018-09-09T05:33:07.065Z,20.75
2018-09-09T05:35:35.365Z,20.50
2018-09-09T05:38:03.639Z,20.75
2018-09-09T05:40:31.945Z,27.50
2018-09-09T05:43:00.253Z,38.50
2018-09-09T05:45:28.647Z,20.00
2018-09-09T05:47:56.955Z,25.75
2018-09-09T05:50:25.265Z,19.50
2018-09-09T05:52:53.623Z,21.25
2018-09-09T05:55:21.936Z,21.00
2018-09-09T05:57:50.289Z,21.00
2018-09-09T06:00:18.624Z,25.00
2018-09-09T06:02:46.952Z,21.75
2018-09-09T06:05:15.260Z,26.00
2018-09-09T06:07:43.584Z,26.00
2018-09-09T06:10:11.902Z,25.00
2018-09-09T06:12:40.179Z,21.25
2018-09-09T06:15:08.522Z,20.75
2018-09-09T06:17:36.847Z,23.25
2018-09-09T06:20:05.169Z,24.00
2018-09-09T06:22:33.452Z,17.25
2018-09-09T06:25:01.920Z,20.75
2018-09-09T06:27:30.246Z,21.50
2018-09-09T06:29:58.827Z,23.50
2018-09-09T06:32:27.135Z,20.50
2018-09-09T06:34:55.775Z,26.75
2018-09-09T06:37:24.051Z,24.25
2018-09-09T06:39:52.339Z,24.00
2018-09-09T06:42:20.639Z,21.00
2018-09-09T06:44:48.959Z,26.50
2018-09-09T06:47:17.273Z,27.25
2018-09-09T06:49:45.604Z,22.25
2018-09-09T06:52:13.890Z,21.75
2018-09-09T06:54:42.253Z,21.00
2018-09-09T06:57:10.705Z,20.25
2018-09-09T06:59:39.043Z,20.00
2018-09-09T07:02:07.322Z,21.50
2018-09-09T07:04:35.633Z,24.00
2018-09-09T07:07:03.938Z,21.00
2018-09-09T07:09:32.166Z,27.00
2018-09-09T07:12:00.668Z,21.00
2018-09-09T07:14:28.775Z,21.75
2018-09-09T07:16:57.092Z,23.25
2018-09-09T07:19:26.298Z,22.25
2018-09-09T07:21:54.615Z,23.75
2018-09-09T07:24:22.930Z,24.00
2018-09-09T07:26:51.253Z,23.50
2018-09-09T07:29:19.591Z,24.00
2018-09-09T07:31:47.947Z,30.00
2018-09-09T07:34:16.310Z,23.50
2018-09-09T07:36:45.476Z,22.25
2018-09-09T07:39:13.788Z,21.75
2018-09-09T07:41:42.137Z,19.00
2018-09-09T07:44:10.467Z,22.25
2018-09-09T07:46:38.838Z,24.50
2018-09-09T07:49:07.220Z,25.00
2018-09-09T07:51:35.726Z,30.00
2018-09-09T07:54:04.038Z,24.00
2018-09-09T07:56:33.067Z,23.00
2018-09-09T07:59:01.383Z,25.00
2018-09-09T08:01:29.690Z,26.00
2018-09-09T08:03:58.003Z,23.75
2018-09-09T08:06:26.496Z,21.25
2018-09-09T08:08:54.864Z,23.00
2018-09-09T08:11:26.880Z,22.75
2018-09-09T08:13:55.210Z,22.25
2018-09-09T08:16:23.532Z,18.50
2018-09-09T08:18:51.821Z,20.25
2018-09-09T08:21:21.041Z,19.50
2018-09-09T08:23:49.376Z,25.25
2018-09-09T08:26:17.734Z,20.00
2018-09-09T08:28:46.040Z,20.00
2018-09-09T08:31:14.386Z,21.50
2018-09-09T08:33:42.688Z,22.50
2018-09-09T08:36:12.262Z,26.75
2018-09-09T08:38:40.816Z,21.75
2018-09-09T08:41:10.100Z,20.25
2018-09-09T08:43:38.712Z,20.25
2018-09-09T08:46:07.224Z,19.50
2018-09-09T08:48:41.327Z,20.25
2018-09-09T08:51:13.024Z,18.25
2018-09-09T08:53:42.030Z,20.25
2018-09-09T08:56:11.147Z,21.00
2018-09-09T08:58:41.289Z,16.25
2018-09-09T09:01:09.613Z,18.00
2018-09-09T09:03:37.942Z,16.75
2018-09-09T09:06:06.272Z,18.00
2018-09-09T09:08:34.596Z,17.00
2018-09-09T09:11:02.872Z,14.00
2018-09-09T09:13:31.188Z,17.00
2018-09-09T09:15:59.473Z,12.25
2018-09-09T09:18:27.850Z,21.00
2018-09-09T09:20:56.321Z,15.00
2018-09-09T09:23:24.648Z,15.00
2018-09-09T09:25:54.139Z,16.50
2018-09-09T09:28:23.391Z,16.00
2018-09-09T09:30:52.518Z,17.25
2018-09-09T09:33:20.886Z,15.25
2018-09-09T09:35:51.442Z,13.00
2018-09-09T09:38:21.035Z,13.25
2018-09-09T09:40:49.641Z,11.25
2018-09-09T09:43:17.952Z,10.75
2018-09-09T09:45:46.288Z,8.00
2018-09-09T09:48:14.714Z,10.00
2018-09-09T09:50:43.095Z,7.50
2018-09-09T09:53:11.395Z,9.00
2018-09-09T09:55:39.822Z,5.25
2018-09-09T09:58:08.128Z,4.25
2018-09-09T10:00:43.668Z,5.00
2018-09-09T10:03:12.035Z,8.50
2018-09-09T10:05:40.332Z,7.00
2018-09-09T10:08:08.645Z,5.00
2018-09-09T10:10:37.379Z,6.25
2018-09-09T10:13:05.973Z,7.00
2018-09-09T10:15:34.259Z,7.00
2018-09-09T10:18:02.572Z,6.75
2018-09-09T10:20:30.920Z,9.00
2018-09-09T10:22:59.203Z,7.00
2018-09-09T10:25:27.511Z,6.75
2018-09-09T10:27:56.692Z,7.00
2018-09-09T10:30:24.984Z,6.25
2018-09-09T10:32:53.250Z,6.25
2018-09-09T10:35:21.523Z,7.00
2018-09-09T10:37:49.833Z,7.00
2018-09-09T10:40:18.100Z,7.25
2018-09-09T10:42:46.384Z,7.00
2018-09-09T10:45:15.253Z,8.00
2018-09-09T10:47:43.657Z,6.50
2018-09-09T10:50:11.984Z,7.75
2018-09-09T10:52:40.244Z,6.75
2018-09-09T10:55:08.547Z,7.75
2018-09-09T10:57:36.872Z,8.25
2018-09-09T11:00:06.168Z,7.75
2018-09-09T11:02:36.315Z,8.00
2018-09-09T11:05:04.667Z,5.75
2018-09-09T11:07:32.942Z,7.00
2018-09-09T11:10:01.255Z,8.00
2018-09-09T11:12:30.896Z,8.25
2018-09-09T11:15:00.559Z,10.75
2018-09-09T11:17:30.668Z,7.75
2018-09-09T11:19:59.429Z,7.25
2018-09-09T11:22:28.499Z,6.75
2018-09-09T11:24:56.779Z,8.75
2018-09-09T11:27:25.483Z,7.75
2018-09-09T11:29:53.804Z,7.75
2018-09-09T11:32:22.024Z,9.00
2018-09-09T11:34:50.299Z,7.25
2018-09-09T11:37:18.536Z,8.50
2018-09-09T11:39:46.844Z,7.00
2018-09-09T11:42:15.122Z,8.75
2018-09-09T11:44:43.439Z,9.00
2018-09-09T11:47:11.723Z,8.00
2018-09-09T11:49:40.026Z,7.25
2018-09-09T11:52:08.298Z,10.00
2018-09-09T11:54:37.908Z,9.00
2018-09-09T11:57:06.183Z,8.50
2018-09-09T11:59:34.481Z,8.50
2018-09-09T12:02:02.823Z,8.00
2018-09-09T12:04:31.089Z,10.75
2018-09-09T12:06:59.643Z,9.75
2018-09-09T12:09:27.967Z,8.75
2018-09-09T12:11:56.235Z,6.75
2018-09-09T12:14:24.578Z,8.00
2018-09-09T12:16:52.947Z,8.50
2018-09-09T12:19:21.211Z,8.00
2018-09-09T12:21:49.498Z,9.00
2018-09-09T12:24:17.763Z,7.00
2018-09-09T12:26:46.070Z,8.75
2018-09-09T12:29:14.331Z,8.00
2018-09-09T12:31:42.620Z,7.75
2018-09-09T12:34:10.900Z,7.00
2018-09-09T12:36:39.194Z,5.00
2018-09-09T12:39:08.465Z,5.50
2018-09-09T12:41:36.917Z,5.25
2018-09-09T12:44:10.482Z,6.50
2018-09-09T12:46:44.032Z,6.75
2018-09-09T12:49:12.331Z,6.00
2018-09-09T12:51:40.624Z,6.25
2018-09-09T12:54:08.907Z,5.50
2018-09-09T12:56:37.184Z,4.00
2018-09-09T12:59:05.549Z,5.00
2018-09-09T13:01:33.844Z,4.25
2018-09-09T13:04:02.120Z,5.00
2018-09-09T13:06:30.399Z,5.25
2018-09-09T13:08:58.674Z,5.50
2018-09-09T13:11:26.975Z,4.50
2018-09-09T13:13:55.220Z,5.75
2018-09-09T13:16:23.511Z,5.75
2018-09-09T13:18:51.806Z,5.00
2018-09-09T13:21:20.187Z,6.25
2018-09-09T13:23:48.469Z,5.00
2018-09-09T13:26:16.872Z,5.00
2018-09-09T13:28:45.091Z,5.50
2018-09-09T13:31:13.340Z,4.00
2018-09-09T13:33:41.664Z,5.00
2018-09-09T13:36:09.950Z,4.50
2018-09-09T13:38:38.248Z,5.00
2018-09-09T13:41:06.565Z,5.25
2018-09-09T13:43:38.243Z,6.75
2018-09-09T13:46:08.888Z,5.00
2018-09-09T13:48:37.312Z,5.75
2018-09-09T13:51:05.788Z,5.00
2018-09-09T13:53:34.142Z,7.00
2018-09-09T13:56:02.441Z,5.25
2018-09-09T13:58:30.746Z,6.25
2018-09-09T14:00:59.095Z,7.75
2018-09-09T14:03:27.387Z,6.25
2018-09-09T14:05:55.708Z,8.00
2018-09-09T14:08:24.018Z,6.00
2018-09-09T14:10:52.348Z,7.00
2018-09-09T14:13:20.615Z,6.00
2018-09-09T14:15:48.890Z,6.25
2018-09-09T14:18:17.244Z,7.00
2018-09-09T14:20:45.538Z,6.00
2018-09-09T14:23:13.809Z,5.50
2018-09-09T14:25:42.096Z,5.25
2018-09-09T14:28:10.391Z,6.00
2018-09-09T14:30:38.665Z,6.75
2018-09-09T14:33:06.955Z,5.75
2018-09-09T14:35:35.282Z,6.00
2018-09-09T14:38:04.056Z,4.50
2018-09-09T14:40:33.264Z,5.25
2018-09-09T14:43:01.541Z,5.50
2018-09-09T14:45:29.814Z,6.00
2018-09-09T14:47:58.155Z,4.50
2018-09-09T14:50:26.952Z,5.50
2018-09-09T14:52:55.251Z,5.00
2018-09-09T14:55:24.247Z,5.00
2018-09-09T14:57:52.577Z,5.75
2018-09-09T15:00:20.931Z,4.25
2018-09-09T15:02:49.226Z,5.00
2018-09-09T15:05:17.569Z,5.00
2018-09-09T15:07:46.089Z,4.75
2018-09-09T15:10:14.399Z,4.75
2018-09-09T15:12:42.751Z,5.50
2018-09-09T15:15:11.368Z,4.75
2018-09-09T15:17:39.693Z,4.75
2018-09-09T15:20:08.095Z,5.00
2018-09-09T15:22:36.455Z,5.00
2018-09-09T15:25:05.409Z,4.50
2018-09-09T15:27:33.840Z,5.00
2018-09-09T15:30:02.211Z,5.00
2018-09-09T15:32:30.551Z,5.00
2018-09-09T15:34:58.953Z,5.50
2018-09-09T15:37:27.300Z,5.00
2018-09-09T15:39:56.713Z,6.00
2018-09-09T15:42:25.040Z,4.00
2018-09-09T15:44:53.383Z,4.75
2018-09-09T15:47:21.765Z,5.00
2018-09-09T15:49:50.545Z,5.25
2018-09-09T15:52:19.828Z,4.00
2018-09-09T15:54:48.104Z,5.00
2018-09-09T15:57:16.400Z,4.50
2018-09-09T15:59:44.713Z,4.00
2018-09-09T16:02:13.075Z,4.75
2018-09-09T16:04:42.512Z,5.00
2018-09-09T16:07:10.921Z,5.00
2018-09-09T16:09:39.155Z,6.50
2018-09-09T16:12:07.491Z,5.00
2018-09-09T16:14:35.795Z,5.25
2018-09-09T16:17:04.114Z,6.75
2018-09-09T16:19:32.418Z,5.00
2018-09-09T16:22:00.733Z,3.00
2018-09-09T16:24:29.060Z,5.00
2018-09-09T16:26:58.347Z,3.50
2018-09-09T16:29:26.587Z,4.50
2018-09-09T16:31:54.913Z,3.75
2018-09-09T16:34:23.182Z,5.25
2018-09-09T16:36:51.624Z,5.50
2018-09-09T16:39:19.921Z,5.50
2018-09-09T16:41:48.204Z,7.25
2018-09-09T16:44:18.391Z,7.50
2018-09-09T16:46:46.768Z,18.75
2018-09-09T16:49:16.104Z,24.00
2018-09-09T16:51:44.411Z,15.50
2018-09-09T16:54:12.717Z,9.00
2018-09-09T16:56:40.999Z,8.00
2018-09-09T16:59:09.340Z,9.00
2018-09-09T17:01:37.630Z,7.25
2018-09-09T17:04:05.985Z,5.50
2018-09-09T17:06:34.298Z,7.00
2018-09-09T17:09:02.590Z,7.25
2018-09-09T17:11:30.862Z,7.50
2018-09-09T17:13:59.163Z,7.50
2018-09-09T17:16:27.471Z,8.00
2018-09-09T17:18:55.756Z,8.00
2018-09-09T17:21:24.059Z,7.00
2018-09-09T17:23:52.335Z,6.75
2018-09-09T17:26:20.667Z,7.00
2018-09-09T17:28:48.988Z,7.00
2018-09-09T17:31:17.331Z,7.00
2018-09-09T17:33:45.635Z,7.00
2018-09-09T17:36:13.905Z,6.00
2018-09-09T17:38:42.219Z,6.25
2018-09-09T17:41:10.508Z,6.25
2018-09-09T17:43:38.861Z,6.00
2018-09-09T17:46:09.221Z,5.75
2018-09-09T17:48:37.650Z,6.75
2018-09-09T17:51:06.949Z,6.00
2018-09-09T17:53:35.787Z,6.50
2018-09-09T17:56:04.435Z,5.50
2018-09-09T17:58:33.000Z,7.50
2018-09-09T18:01:01.344Z,7.00
2018-09-09T18:03:31.632Z,7.00
2018-09-09T18:05:59.962Z,7.50
2018-09-09T18:08:28.828Z,8.25
2018-09-09T18:10:57.180Z,7.75
2018-09-09T18:13:25.455Z,7.25
2018-09-09T18:15:54.672Z,8.75
2018-09-09T18:18:23.997Z,10.00
2018-09-09T18:20:52.829Z,8.50
2018-09-09T18:23:21.136Z,9.25
2018-09-09T18:25:51.100Z,8.00
2018-09-09T18:28:19.598Z,7.25
2018-09-09T18:30:47.981Z,10.25
2018-09-09T18:33:16.629Z,7.00
2018-09-09T18:35:45.728Z,8.75
2018-09-09T18:38:15.387Z,7.00
2018-09-09T18:40:43.755Z,9.25
2018-09-09T18:43:12.065Z,9.00
2018-09-09T18:45:40.464Z,8.50
2018-09-09T18:48:09.065Z,9.00
2018-09-09T18:50:38.537Z,10.75
2018-09-09T18:53:06.924Z,9.00
2018-09-09T18:55:43.439Z,9.00
2018-09-09T19:00:52.107Z,12.75
2018-09-09T19:06:25.554Z,12.00
2018-09-09T19:08:54.319Z,8.75
2018-09-09T19:11:23.870Z,11.00
2018-09-09T19:14:01.618Z,11.50
2018-09-09T19:16:36.746Z,13.00
2018-09-09T19:19:05.141Z,12.00
2018-09-09T19:21:33.772Z,10.75
2018-09-09T19:24:06.439Z,10.00
2018-09-09T19:26:35.177Z,13.50
2018-09-09T19:29:03.656Z,10.25
2018-09-09T19:31:32.348Z,12.75
2018-09-09T19:34:01.212Z,11.75
2018-09-09T19:36:33.280Z,14.00
2018-09-09T19:39:02.191Z,10.00
2018-09-09T19:41:30.609Z,14.00
2018-09-09T19:44:00.082Z,13.00
2018-09-09T19:46:29.528Z,13.00
2018-09-09T19:49:03.154Z,13.75
2018-09-09T19:51:31.539Z,16.25
2018-09-09T19:53:59.922Z,12.25
2018-09-09T19:56:28.307Z,13.25
2018-09-09T19:58:57.315Z,12.25
2018-09-09T20:01:25.899Z,13.75
2018-09-09T20:03:54.226Z,12.00
2018-09-09T20:06:22.562Z,12.25
2018-09-09T20:08:50.868Z,14.00
2018-09-09T20:11:20.064Z,12.00
2018-09-09T20:13:48.356Z,11.50
2018-09-09T20:16:16.692Z,13.00
2018-09-09T20:18:45.894Z,12.75
2018-09-09T20:21:14.193Z,11.75
2018-09-09T20:23:44.533Z,10.00
2018-09-09T20:26:12.874Z,10.00
2018-09-09T20:28:41.225Z,11.75
2018-09-09T20:31:09.602Z,12.00
2018-09-09T20:33:37.936Z,13.25
2018-09-09T20:36:07.467Z,14.75
2018-09-09T20:38:35.762Z,11.50
2018-09-09T20:41:22.070Z,13.00
2018-09-09T20:50:02.531Z,9.50
2018-09-09T20:52:32.764Z,9.25
2018-09-09T20:55:09.419Z,8.00
2018-09-09T20:57:39.911Z,8.00
2018-09-09T21:00:20.523Z,9.00
2018-09-09T21:02:53.472Z,9.50
2018-09-09T21:05:24.798Z,6.00
2018-09-09T21:08:11.035Z,7.50
2018-09-09T21:10:42.494Z,8.00
2018-09-09T21:13:15.575Z,9.50
2018-09-09T21:15:49.228Z,10.75
2018-09-09T21:18:17.559Z,10.00
2018-09-09T21:20:45.943Z,8.25
2018-09-09T21:23:21.734Z,7.50
2018-09-09T21:25:50.046Z,9.25
2018-09-09T21:28:18.396Z,6.00
2018-09-09T21:30:46.738Z,9.25
2018-09-09T21:33:15.066Z,9.00
2018-09-09T21:35:45.362Z,12.00
2018-09-09T21:38:13.725Z,9.25
2018-09-09T21:40:42.209Z,9.00
2018-09-09T21:43:11.066Z,10.50
2018-09-09T21:45:39.423Z,6.00
2018-09-09T21:48:07.758Z,10.50
2018-09-09T21:50:36.156Z,11.50
2018-09-09T21:53:04.486Z,8.00
2018-09-09T21:55:32.808Z,8.50
2018-09-09T21:58:01.119Z,10.75
2018-09-09T22:00:29.463Z,11.75
2018-09-09T22:02:57.754Z,10.00
2018-09-09T22:05:26.085Z,12.50
2018-09-09T22:07:54.440Z,15.25
2018-09-09T22:10:22.792Z,12.75
2018-09-09T22:12:51.104Z,12.75
2018-09-09T22:15:19.426Z,13.00
2018-09-09T22:17:47.720Z,11.50
2018-09-09T22:20:16.065Z,11.25
2018-09-09T22:22:44.451Z,11.25
2018-09-09T22:25:12.778Z,12.00
2018-09-09T22:27:41.098Z,10.75
2018-09-09T22:30:09.427Z,9.50
2018-09-09T22:32:37.783Z,13.00
2018-09-09T22:35:06.413Z,11.75
2018-09-09T22:37:39.994Z,12.25
2018-09-09T22:40:09.526Z,12.50
2018-09-09T22:42:43.458Z,9.50
2018-09-09T22:45:14.577Z,12.50
2018-09-09T22:47:47.072Z,12.00
2018-09-09T22:50:15.781Z,11.00
2018-09-09T22:52:45.508Z,10.00
2018-09-09T22:55:13.908Z,9.50
2018-09-09T22:57:42.361Z,11.50
2018-09-09T23:00:10.984Z,9.25
2018-09-09T23:02:40.220Z,11.00
2018-09-09T23:05:08.663Z,11.00
2018-09-09T23:07:38.088Z,12.00
2018-09-09T23:10:06.548Z,13.00
2018-09-09T23:12:34.957Z,9.25
2018-09-09T23:15:03.680Z,12.50
2018-09-09T23:17:32.767Z,10.75
2018-09-09T23:20:02.226Z,11.00
2018-09-09T23:22:30.647Z,8.75
2018-09-09T23:24:59.191Z,12.00
2018-09-09T23:27:27.784Z,11.50
2018-09-09T23:29:56.392Z,11.25
2018-09-09T23:32:25.363Z,11.00
2018-09-09T23:34:53.831Z,14.25
2018-09-09T23:37:22.263Z,12.25
2018-09-09T23:39:50.699Z,14.00
2018-09-09T23:42:19.227Z,12.00
2018-09-09T23:44:47.597Z,12.00
2018-09-09T23:47:15.952Z,14.00
2018-09-09T23:49:44.343Z,12.75
2018-09-09T23:52:12.739Z,11.50
2018-09-09T23:54:41.149Z,16.50
2018-09-09T23:57:09.792Z,14.25
2018-09-09T23:59:38.493Z,15.25
